createdAt,value
2017-11-14T00:00:55.621Z,2.80
2017-11-14T00:02:23.883Z,2.81
2017-11-14T00:03:51.090Z,2.81
2017-11-14T00:05:18.282Z,2.83
2017-11-14T00:06:44.568Z,2.82
2017-11-14T00:08:12.847Z,2.81
2017-11-14T00:09:40.167Z,2.85
2017-11-14T00:11:07.429Z,2.84
2017-11-14T00:12:34.375Z,2.82
2017-11-14T00:14:01.667Z,2.84
2017-11-14T00:15:28.904Z,2.83
2017-11-14T00:16:56.064Z,2.83
2017-11-14T00:18:23.243Z,2.76
2017-11-14T00:19:50.523Z,2.74
2017-11-14T00:21:16.628Z,2.77
2017-11-14T00:22:44.872Z,2.76
2017-11-14T00:24:10.970Z,2.73
2017-11-14T00:25:39.176Z,2.72
2017-11-14T00:27:06.169Z,2.69
2017-11-14T00:28:33.449Z,2.67
2017-11-14T00:30:00.832Z,2.63
2017-11-14T00:31:27.823Z,2.58
2017-11-14T00:32:53.983Z,2.57
2017-11-14T00:34:22.097Z,2.59
2017-11-14T00:35:49.176Z,2.57
2017-11-14T00:37:16.035Z,2.56
2017-11-14T00:38:43.011Z,2.53
2017-11-14T00:40:10.304Z,2.52
2017-11-14T00:41:37.440Z,2.50
2017-11-14T00:43:04.456Z,2.51
2017-11-14T00:44:30.569Z,2.52
2017-11-14T00:46:03.468Z,2.53
2017-11-14T00:47:25.658Z,2.52
2017-11-14T00:48:52.789Z,2.54
2017-11-14T00:50:19.206Z,2.56
2017-11-14T00:51:47.399Z,2.54
2017-11-14T00:53:13.594Z,2.51
2017-11-14T00:54:41.748Z,2.49
2017-11-14T00:56:08.916Z,2.50
2017-11-14T00:57:36.228Z,2.43
2017-11-14T00:59:03.321Z,2.39
2017-11-14T01:00:29.738Z,2.31
2017-11-14T01:01:57.984Z,2.26
2017-11-14T01:03:25.108Z,2.24
2017-11-14T01:04:51.295Z,2.22
2017-11-14T01:06:19.416Z,2.23
2017-11-14T01:07:46.472Z,2.27
2017-11-14T01:09:13.728Z,2.28
2017-11-14T01:10:39.569Z,2.26
2017-11-14T01:12:06.874Z,2.28
2017-11-14T01:13:34.868Z,2.30
2017-11-14T01:15:02.034Z,2.28
2017-11-14T01:16:29.143Z,2.31
2017-11-14T01:17:56.143Z,2.32
2017-11-14T01:19:23.395Z,2.33
2017-11-14T01:20:50.489Z,2.34
2017-11-14T01:22:17.700Z,2.35
2017-11-14T01:23:44.701Z,2.34
2017-11-14T01:25:11.563Z,2.34
2017-11-14T01:26:38.839Z,2.31
2017-11-14T01:28:05.990Z,2.33
2017-11-14T01:29:32.821Z,2.33
2017-11-14T01:31:00.079Z,2.35
2017-11-14T01:32:26.370Z,2.36
2017-11-14T01:33:54.551Z,2.33
2017-11-14T01:35:21.780Z,2.32
2017-11-14T01:36:48.541Z,2.30
2017-11-14T01:38:15.433Z,2.29
2017-11-14T01:39:42.648Z,2.29
2017-11-14T01:41:09.878Z,2.29
2017-11-14T01:42:37.180Z,2.31
2017-11-14T01:44:04.447Z,2.31
2017-11-14T01:45:30.618Z,2.30
2017-11-14T01:46:58.709Z,2.31
2017-11-14T01:48:25.938Z,2.31
2017-11-14T01:49:53.281Z,2.32
2017-11-14T01:51:20.424Z,2.33
2017-11-14T01:52:47.681Z,2.34
2017-11-14T01:54:15.693Z,2.36
2017-11-14T01:55:41.923Z,2.35
2017-11-14T01:57:09.245Z,2.35
2017-11-14T01:58:36.251Z,2.36
2017-11-14T02:00:03.608Z,2.34
2017-11-14T02:01:30.627Z,2.34
2017-11-14T02:02:56.855Z,2.34
2017-11-14T02:04:24.149Z,2.33
2017-11-14T02:05:52.419Z,2.32
2017-11-14T02:07:18.608Z,2.33
2017-11-14T02:08:46.793Z,2.34
2017-11-14T02:10:13.920Z,2.34
2017-11-14T02:11:41.003Z,2.36
2017-11-14T02:13:08.344Z,2.38
2017-11-14T02:14:35.554Z,2.39
2017-11-14T02:16:02.858Z,2.35
2017-11-14T02:17:28.938Z,2.33
2017-11-14T02:18:56.067Z,2.32
2017-11-14T02:20:24.380Z,2.34
2017-11-14T02:21:51.447Z,2.37
2017-11-14T02:23:18.477Z,2.38
2017-11-14T02:24:45.748Z,2.40
2017-11-14T02:26:12.991Z,2.39
2017-11-14T02:27:39.992Z,2.39
2017-11-14T02:29:07.207Z,2.40
2017-11-14T02:30:34.277Z,2.41
2017-11-14T02:32:00.489Z,2.43
2017-11-14T02:33:28.819Z,2.46
2017-11-14T02:34:55.952Z,2.51
2017-11-14T02:36:22.962Z,2.55
2017-11-14T02:37:49.894Z,2.60
2017-11-14T02:39:16.129Z,2.63
2017-11-14T02:40:44.466Z,2.67
2017-11-14T02:42:11.416Z,2.71
2017-11-14T02:43:37.555Z,2.74
2017-11-14T02:45:05.678Z,2.78
2017-11-14T02:46:32.717Z,2.80
2017-11-14T02:47:59.792Z,2.82
2017-11-14T02:49:25.797Z,2.83
2017-11-14T02:50:54.069Z,2.85
2017-11-14T02:52:21.196Z,2.87
2017-11-14T02:53:48.504Z,2.88
2017-11-14T02:55:15.462Z,2.90
2017-11-14T02:56:42.488Z,2.88
2017-11-14T02:58:08.711Z,2.89
2017-11-14T02:59:36.976Z,2.91
2017-11-14T03:01:04.140Z,2.90
2017-11-14T03:02:31.428Z,2.91
2017-11-14T03:03:58.636Z,2.92
2017-11-14T03:05:25.735Z,2.93
2017-11-14T03:06:52.999Z,2.91
2017-11-14T03:08:19.164Z,2.90
2017-11-14T03:09:47.439Z,2.89
2017-11-14T03:11:14.501Z,2.89
2017-11-14T03:12:41.790Z,2.88
2017-11-14T03:14:08.701Z,2.86
2017-11-14T03:15:35.924Z,2.83
2017-11-14T03:17:03.200Z,2.84
2017-11-14T03:18:30.335Z,2.85
2017-11-14T03:19:57.533Z,2.87
2017-11-14T03:21:24.754Z,2.87
2017-11-14T03:22:52.159Z,2.80
2017-11-14T03:24:19.285Z,2.72
2017-11-14T03:25:45.553Z,2.63
2017-11-14T03:27:12.810Z,2.53
2017-11-14T03:28:39.823Z,2.53
2017-11-14T03:30:07.016Z,2.54
2017-11-14T03:31:35.256Z,2.53
2017-11-14T03:33:02.649Z,2.54
2017-11-14T03:34:29.874Z,2.54
2017-11-14T03:35:57.072Z,2.46
2017-11-14T03:37:23.142Z,2.39
2017-11-14T03:38:51.196Z,2.34
2017-11-14T03:40:18.603Z,2.31
2017-11-14T03:41:44.751Z,2.34
2017-11-14T03:43:12.979Z,2.34
2017-11-14T03:44:40.153Z,2.33
2017-11-14T03:46:06.468Z,2.32
2017-11-14T03:47:34.710Z,2.31
2017-11-14T03:49:00.827Z,2.33
2017-11-14T03:50:27.868Z,2.39
2017-11-14T03:51:56.208Z,2.44
2017-11-14T03:53:23.096Z,2.50
2017-11-14T03:54:50.538Z,2.54
2017-11-14T03:56:17.522Z,2.58
2017-11-14T03:57:44.709Z,2.60
2017-11-14T03:59:11.793Z,2.62
2017-11-14T04:00:38.836Z,2.64
2017-11-14T04:02:05.953Z,2.66
2017-11-14T04:03:33.177Z,2.70
2017-11-14T04:05:00.437Z,2.73
2017-11-14T04:06:27.749Z,2.76
2017-11-14T04:07:53.877Z,2.79
2017-11-14T04:09:22.258Z,2.82
2017-11-14T04:10:49.660Z,2.84
2017-11-14T04:12:16.695Z,2.86
2017-11-14T04:13:43.526Z,2.88
2017-11-14T04:15:10.508Z,2.92
2017-11-14T04:16:37.655Z,2.94
2017-11-14T04:18:05.001Z,2.96
2017-11-14T04:19:31.249Z,2.98
2017-11-14T04:20:58.533Z,3.00
2017-11-14T04:22:25.953Z,3.01
2017-11-14T04:23:53.082Z,3.01
2017-11-14T04:25:20.343Z,3.00
2017-11-14T04:26:48.430Z,3.00
2017-11-14T04:28:14.646Z,3.00
2017-11-14T04:29:42.994Z,3.01
2017-11-14T04:31:09.995Z,3.02
2017-11-14T04:32:37.250Z,3.02
2017-11-14T04:34:03.749Z,3.02
2017-11-14T04:35:29.869Z,3.00
2017-11-14T04:36:57.903Z,2.99
2017-11-14T04:38:25.023Z,2.98
2017-11-14T04:39:52.311Z,2.99
2017-11-14T04:41:19.401Z,2.99
2017-11-14T04:42:45.543Z,3.00
2017-11-14T04:44:13.761Z,3.01
2017-11-14T04:45:40.936Z,3.01
2017-11-14T04:47:08.236Z,3.00
2017-11-14T04:48:35.608Z,3.00
2017-11-14T04:50:01.675Z,2.98
2017-11-14T04:51:30.025Z,2.96
2017-11-14T04:52:56.189Z,2.93
2017-11-14T04:54:24.587Z,2.84
2017-11-14T04:55:51.801Z,2.84
2017-11-14T04:57:18.867Z,2.82
2017-11-14T04:58:45.103Z,2.82
2017-11-14T05:00:13.346Z,2.82
2017-11-14T05:01:40.362Z,2.82
2017-11-14T05:03:06.446Z,2.79
2017-11-14T05:04:34.914Z,2.76
2017-11-14T05:06:01.883Z,2.75
2017-11-14T05:07:29.156Z,2.75
2017-11-14T05:08:55.476Z,2.77
2017-11-14T05:10:23.571Z,2.78
2017-11-14T05:11:49.825Z,2.79
2017-11-14T05:13:18.105Z,2.79
2017-11-14T05:14:45.391Z,2.80
2017-11-14T05:16:12.620Z,2.80
2017-11-14T05:17:38.869Z,2.78
2017-11-14T05:19:07.069Z,2.78
2017-11-14T05:20:34.432Z,2.77
2017-11-14T05:22:00.735Z,2.79
2017-11-14T05:23:28.047Z,2.78
2017-11-14T05:24:55.254Z,2.76
2017-11-14T05:26:23.315Z,2.75
2017-11-14T05:27:49.399Z,2.75
2017-11-14T05:29:17.550Z,2.69
2017-11-14T05:30:44.601Z,2.69
2017-11-14T05:32:11.776Z,2.68
2017-11-14T05:33:38.185Z,2.69
2017-11-14T05:35:05.341Z,2.70
2017-11-14T05:36:33.587Z,2.71
2017-11-14T05:38:00.918Z,2.72
2017-11-14T05:39:28.068Z,2.72
2017-11-14T05:40:55.339Z,2.73
2017-11-14T05:42:22.451Z,2.73
2017-11-14T05:43:49.632Z,2.74
2017-11-14T05:45:16.872Z,2.74
2017-11-14T05:46:43.861Z,2.75
2017-11-14T05:48:09.667Z,2.76
2017-11-14T05:49:37.900Z,2.77
2017-11-14T05:51:04.692Z,2.78
2017-11-14T05:52:31.861Z,2.76
2017-11-14T05:53:59.146Z,2.77
2017-11-14T05:55:26.324Z,2.78
2017-11-14T05:56:53.013Z,2.79
2017-11-14T05:58:19.998Z,2.76
2017-11-14T05:59:46.133Z,2.75
2017-11-14T06:01:14.439Z,2.74
2017-11-14T06:02:41.559Z,2.74
2017-11-14T06:04:07.854Z,2.74
2017-11-14T06:05:35.084Z,2.72
2017-11-14T06:07:03.318Z,2.73
2017-11-14T06:08:30.553Z,2.74
2017-11-14T06:09:56.567Z,2.74
2017-11-14T06:11:23.758Z,2.75
2017-11-14T06:12:51.929Z,2.76
2017-11-14T06:14:19.273Z,2.77
2017-11-14T06:15:46.471Z,2.78
2017-11-14T06:17:13.638Z,2.79
2017-11-14T06:18:40.668Z,2.79
2017-11-14T06:20:06.639Z,2.79
2017-11-14T06:21:35.018Z,2.80
2017-11-14T06:23:02.176Z,2.80
2017-11-14T06:24:29.218Z,2.80
2017-11-14T06:25:55.332Z,2.80
2017-11-14T06:27:23.717Z,2.81
2017-11-14T06:28:50.008Z,2.81
2017-11-14T06:30:17.960Z,2.81
2017-11-14T06:31:45.108Z,2.82
2017-11-14T06:33:12.430Z,2.81
2017-11-14T06:34:39.573Z,2.81
2017-11-14T06:36:06.756Z,2.81
2017-11-14T06:37:33.808Z,2.81
2017-11-14T06:39:01.093Z,2.82
2017-11-14T06:40:28.207Z,2.83
2017-11-14T06:41:55.461Z,2.84
2017-11-14T06:43:22.729Z,2.85
2017-11-14T06:44:49.792Z,2.86
2017-11-14T06:46:15.641Z,2.87
2017-11-14T06:47:44.005Z,2.88
2017-11-14T06:49:15.745Z,2.89
2017-11-14T06:50:37.978Z,2.91
2017-11-14T06:52:04.001Z,2.91
2017-11-14T06:53:32.158Z,2.92
2017-11-14T06:54:59.336Z,2.93
2017-11-14T06:56:26.546Z,2.95
2017-11-14T06:57:53.777Z,2.97
2017-11-14T06:59:19.740Z,2.99
2017-11-14T07:00:47.934Z,3.01
2017-11-14T07:02:14.081Z,3.03
2017-11-14T07:03:41.194Z,3.06
2017-11-14T07:05:09.164Z,3.09
2017-11-14T07:06:36.566Z,3.10
2017-11-14T07:08:03.669Z,3.13
2017-11-14T07:09:30.959Z,3.16
2017-11-14T07:10:57.159Z,3.19
2017-11-14T07:12:24.030Z,3.22
2017-11-14T07:13:50.787Z,3.25
2017-11-14T07:15:18.020Z,3.29
2017-11-14T07:16:46.256Z,3.32
2017-11-14T07:18:13.427Z,3.37
2017-11-14T07:19:40.737Z,3.41
2017-11-14T07:21:07.998Z,3.45
2017-11-14T07:22:35.211Z,3.49
2017-11-14T07:24:02.287Z,3.51
2017-11-14T07:25:28.555Z,3.55
2017-11-14T07:26:56.482Z,3.57
2017-11-14T07:28:25.664Z,3.60
2017-11-14T07:29:50.808Z,3.63
2017-11-14T07:31:17.854Z,3.65
2017-11-14T07:32:44.730Z,3.68
2017-11-14T07:34:11.746Z,3.69
2017-11-14T07:35:38.845Z,3.71
2017-11-14T07:37:05.959Z,3.73
2017-11-14T07:38:33.039Z,3.75
2017-11-14T07:40:00.321Z,3.76
2017-11-14T07:41:27.546Z,3.78
2017-11-14T07:42:53.829Z,3.81
2017-11-14T07:44:21.160Z,3.84
2017-11-14T07:45:49.523Z,3.87
2017-11-14T07:47:15.667Z,3.90
2017-11-14T07:48:43.791Z,3.92
2017-11-14T07:51:36.916Z,3.95
2017-11-14T07:53:04.169Z,3.95
2017-11-14T07:54:32.595Z,3.96
2017-11-14T07:55:58.853Z,3.95
2017-11-14T07:57:27.096Z,3.95
2017-11-14T07:58:54.322Z,3.94
2017-11-14T08:00:20.404Z,3.95
2017-11-14T08:01:48.724Z,3.95
2017-11-14T08:03:15.773Z,3.97
2017-11-14T08:04:42.774Z,3.99
2017-11-14T08:06:10.103Z,4.01
2017-11-14T08:07:37.451Z,4.03
2017-11-14T08:09:04.742Z,4.05
2017-11-14T08:10:30.827Z,4.07
2017-11-14T08:11:59.169Z,4.07
2017-11-14T08:13:26.408Z,4.08
2017-11-14T08:14:53.784Z,4.09
2017-11-14T08:16:20.980Z,4.10
2017-11-14T08:17:48.140Z,4.12
2017-11-14T08:19:14.258Z,4.14
2017-11-14T08:20:42.458Z,4.16
2017-11-14T08:22:09.692Z,4.18
2017-11-14T08:23:37.074Z,4.20
2017-11-14T08:25:03.341Z,4.22
2017-11-14T08:26:31.724Z,4.24
2017-11-14T08:27:57.903Z,4.27
2017-11-14T08:29:26.200Z,4.30
2017-11-14T08:30:52.568Z,4.33
2017-11-14T08:32:19.807Z,4.37
2017-11-14T08:33:46.985Z,4.42
2017-11-14T08:35:15.079Z,4.46
2017-11-14T08:36:41.973Z,4.50
2017-11-14T08:38:09.381Z,4.52
2017-11-14T08:39:36.487Z,4.54
2017-11-14T08:41:03.848Z,4.56
2017-11-14T08:42:31.381Z,4.57
2017-11-14T08:43:58.590Z,4.59
2017-11-14T08:45:25.894Z,4.60
2017-11-14T08:46:51.441Z,4.60
2017-11-14T08:48:18.563Z,4.60
2017-11-14T08:49:46.952Z,4.61
2017-11-14T08:51:13.004Z,4.62
2017-11-14T08:52:40.004Z,4.63
2017-11-14T08:54:07.253Z,4.64
2017-11-14T08:55:34.334Z,4.65
2017-11-14T08:57:02.437Z,4.65
2017-11-14T08:58:28.748Z,4.66
2017-11-14T08:59:56.034Z,4.67
2017-11-14T09:01:23.904Z,4.68
2017-11-14T09:02:50.932Z,4.69
2017-11-14T09:04:18.079Z,4.70
2017-11-14T09:05:44.146Z,4.71
2017-11-14T09:07:11.312Z,4.72
2017-11-14T09:08:39.546Z,4.73
2017-11-14T09:10:06.739Z,4.74
2017-11-14T09:11:32.793Z,4.77
2017-11-14T09:13:01.056Z,4.80
2017-11-14T09:14:27.319Z,4.83
2017-11-14T09:15:55.485Z,4.88
2017-11-14T09:17:22.520Z,4.93
2017-11-14T09:18:49.070Z,4.96
2017-11-14T09:20:17.243Z,4.99
2017-11-14T09:21:43.505Z,5.02
2017-11-14T09:23:10.862Z,5.07
2017-11-14T09:24:38.909Z,5.11
2017-11-14T09:26:06.180Z,5.13
2017-11-14T09:27:32.496Z,5.17
2017-11-14T09:29:00.773Z,5.17
2017-11-14T09:30:27.817Z,5.20
2017-11-14T09:31:53.994Z,5.22
2017-11-14T09:33:22.342Z,5.24
2017-11-14T09:34:49.637Z,5.25
2017-11-14T09:36:16.671Z,5.26
2017-11-14T09:37:43.946Z,5.28
2017-11-14T09:39:09.833Z,5.28
2017-11-14T09:40:37.958Z,5.26
2017-11-14T09:42:04.152Z,5.26
2017-11-14T09:43:31.926Z,5.26
2017-11-14T09:44:59.214Z,5.26
2017-11-14T09:46:25.386Z,5.27
2017-11-14T09:47:52.753Z,5.28
2017-11-14T09:49:21.139Z,5.27
2017-11-14T09:50:48.503Z,5.27
2017-11-14T09:52:14.541Z,5.26
2017-11-14T09:53:42.777Z,5.27
2017-11-14T09:55:10.022Z,5.28
2017-11-14T09:56:37.163Z,5.30
2017-11-14T09:58:04.565Z,5.33
2017-11-14T09:59:31.688Z,5.36
2017-11-14T10:00:58.816Z,5.41
2017-11-14T10:02:25.958Z,5.45
2017-11-14T10:03:53.129Z,5.50
2017-11-14T10:05:19.347Z,5.56
2017-11-14T10:06:47.502Z,5.60
2017-11-14T10:08:14.789Z,5.62
2017-11-14T10:09:41.050Z,5.62
2017-11-14T10:11:09.307Z,5.62
2017-11-14T10:12:36.122Z,5.62
2017-11-14T10:14:03.381Z,5.61
2017-11-14T10:15:29.609Z,5.60
2017-11-14T10:16:56.915Z,5.58
2017-11-14T10:18:24.168Z,5.56
2017-11-14T10:19:51.266Z,5.54
2017-11-14T10:21:19.532Z,5.53
2017-11-14T10:22:45.777Z,5.51
2017-11-14T10:24:14.123Z,5.49
2017-11-14T10:25:41.189Z,5.49
2017-11-14T10:27:07.456Z,5.49
2017-11-14T10:28:35.933Z,5.52
2017-11-14T10:30:03.284Z,5.55
2017-11-14T10:31:30.713Z,5.59
2017-11-14T10:32:57.980Z,5.62
2017-11-14T10:34:25.109Z,5.66
2017-11-14T10:35:52.541Z,5.71
2017-11-14T10:37:19.736Z,5.75
2017-11-14T10:38:47.005Z,5.77
2017-11-14T10:40:14.272Z,5.78
2017-11-14T10:41:41.340Z,5.78
2017-11-14T10:43:08.460Z,5.78
2017-11-14T10:44:35.520Z,5.79
2017-11-14T10:46:02.756Z,5.79
2017-11-14T10:47:29.081Z,5.80
2017-11-14T10:48:57.211Z,5.82
2017-11-14T10:50:24.317Z,5.83
2017-11-14T10:51:51.440Z,5.84
2017-11-14T10:53:18.651Z,5.83
2017-11-14T10:54:46.073Z,5.82
2017-11-14T10:56:13.285Z,5.82
2017-11-14T10:57:40.543Z,5.83
2017-11-14T10:59:07.796Z,5.85
2017-11-14T11:00:33.879Z,5.86
2017-11-14T11:02:01.126Z,5.88
2017-11-14T11:03:29.441Z,5.90
2017-11-14T11:04:56.454Z,5.91
2017-11-14T11:06:22.610Z,5.93
2017-11-14T11:07:49.946Z,5.93
2017-11-14T11:09:18.152Z,5.93
2017-11-14T11:10:45.338Z,5.92
2017-11-14T11:12:12.417Z,5.91
2017-11-14T11:13:39.605Z,5.91
2017-11-14T11:15:05.703Z,5.91
2017-11-14T11:16:33.012Z,5.91
2017-11-14T11:18:01.216Z,5.91
2017-11-14T11:19:28.467Z,5.91
2017-11-14T11:20:55.705Z,5.90
2017-11-14T11:22:22.050Z,5.89
2017-11-14T11:23:49.163Z,5.88
2017-11-14T11:25:17.572Z,5.87
2017-11-14T11:26:44.737Z,5.87
2017-11-14T11:28:10.960Z,5.88
2017-11-14T11:29:39.120Z,5.87
2017-11-14T11:31:05.363Z,5.86
2017-11-14T11:32:32.407Z,5.86
2017-11-14T11:34:00.804Z,5.87
2017-11-14T11:35:27.031Z,5.87
2017-11-14T11:36:55.257Z,5.88
2017-11-14T11:38:21.532Z,5.89
2017-11-14T11:39:48.843Z,5.90
2017-11-14T11:41:16.986Z,5.90
2017-11-14T11:42:43.931Z,5.86
2017-11-14T11:44:11.213Z,5.86
2017-11-14T11:45:38.405Z,5.85
2017-11-14T11:47:05.519Z,5.83
2017-11-14T11:48:31.854Z,5.84
2017-11-14T11:50:00.004Z,5.86
2017-11-14T11:51:26.321Z,5.88
2017-11-14T11:52:54.502Z,5.90
2017-11-14T11:54:21.692Z,5.93
2017-11-14T11:57:15.232Z,5.97
2017-11-14T11:58:43.446Z,5.99
2017-11-14T12:00:10.841Z,6.01
2017-11-14T12:01:36.893Z,6.04
2017-11-14T12:03:05.050Z,6.07
2017-11-14T12:04:31.318Z,6.10
2017-11-14T12:05:58.533Z,6.11
2017-11-14T12:07:25.901Z,6.12
2017-11-14T12:08:54.026Z,6.12
2017-11-14T12:10:21.118Z,6.13
2017-11-14T12:11:48.262Z,6.14
2017-11-14T12:13:15.315Z,6.13
2017-11-14T12:14:42.667Z,6.12
2017-11-14T12:16:09.689Z,6.13
2017-11-14T12:17:37.275Z,6.16
2017-11-14T12:19:04.403Z,6.17
2017-11-14T12:20:31.484Z,6.17
2017-11-14T12:21:57.858Z,6.17
2017-11-14T12:23:25.983Z,6.18
2017-11-14T12:24:53.393Z,6.18
2017-11-14T12:26:20.459Z,6.18
2017-11-14T12:27:47.570Z,6.18
2017-11-14T12:29:14.812Z,6.18
2017-11-14T12:30:40.994Z,6.18
2017-11-14T12:32:09.175Z,6.17
2017-11-14T12:33:36.303Z,6.18
2017-11-14T12:35:02.308Z,6.19
2017-11-14T12:36:29.610Z,6.21
2017-11-14T12:37:56.861Z,6.22
2017-11-14T12:39:25.249Z,6.22
2017-11-14T12:40:51.549Z,6.22
2017-11-14T12:42:18.693Z,6.22
2017-11-14T12:43:46.745Z,6.23
2017-11-14T12:45:12.979Z,6.24
2017-11-14T12:46:39.635Z,6.26
2017-11-14T12:48:06.851Z,6.27
2017-11-14T12:49:29.887Z,6.28
2017-11-14T12:51:01.046Z,6.28
2017-11-14T12:52:28.127Z,6.29
2017-11-14T12:53:55.338Z,6.29
2017-11-14T12:55:23.628Z,6.29
2017-11-14T12:58:18.117Z,6.29
2017-11-14T12:59:44.909Z,6.29
2017-11-14T13:01:11.268Z,6.30
2017-11-14T13:02:38.603Z,6.32
2017-11-14T13:04:06.618Z,6.33
2017-11-14T13:05:33.943Z,6.35
2017-11-14T13:07:00.069Z,6.36
2017-11-14T13:08:27.347Z,6.37
2017-11-14T13:09:54.702Z,6.37
2017-11-14T13:11:22.022Z,6.38
2017-11-14T13:12:49.221Z,6.40
2017-11-14T13:14:17.417Z,6.39
2017-11-14T13:15:44.607Z,6.39
2017-11-14T13:17:10.834Z,6.37
2017-11-14T13:18:39.219Z,6.38
2017-11-14T13:20:06.340Z,6.37
2017-11-14T13:21:32.500Z,6.38
2017-11-14T13:22:59.749Z,6.38
2017-11-14T13:24:28.104Z,6.37
2017-11-14T13:25:54.290Z,6.38
2017-11-14T13:27:21.531Z,6.39
2017-11-14T13:28:49.702Z,6.39
2017-11-14T13:30:15.963Z,6.39
2017-11-14T13:31:43.180Z,6.39
2017-11-14T13:33:10.356Z,6.37
2017-11-14T13:34:38.573Z,6.38
2017-11-14T13:36:05.987Z,6.38
2017-11-14T13:37:33.074Z,6.38
2017-11-14T13:38:59.608Z,6.37
2017-11-14T13:40:26.646Z,6.37
2017-11-14T13:41:53.986Z,6.37
2017-11-14T13:43:20.833Z,6.36
2017-11-14T13:44:49.260Z,6.35
2017-11-14T13:46:16.496Z,6.34
2017-11-14T13:47:42.793Z,6.32
2017-11-14T13:49:10.857Z,6.32
2017-11-14T13:50:36.906Z,6.31
2017-11-14T13:52:05.214Z,6.30
2017-11-14T13:53:32.492Z,6.29
2017-11-14T13:54:59.802Z,6.29
2017-11-14T13:56:26.277Z,6.28
2017-11-14T13:57:54.466Z,6.27
2017-11-14T13:59:21.792Z,6.26
2017-11-14T14:00:49.160Z,6.26
2017-11-14T14:02:15.461Z,6.25
2017-11-14T14:03:42.646Z,6.23
2017-11-14T14:05:10.817Z,6.23
2017-11-14T14:06:38.076Z,6.23
2017-11-14T14:08:05.093Z,6.22
2017-11-14T14:09:31.484Z,6.23
2017-11-14T14:10:58.856Z,6.22
2017-11-14T14:12:26.187Z,6.20
2017-11-14T14:13:53.394Z,6.21
2017-11-14T14:15:21.768Z,6.21
2017-11-14T14:16:47.993Z,6.20
2017-11-14T14:18:16.390Z,6.19
2017-11-14T14:19:43.645Z,6.20
2017-11-14T14:21:11.003Z,6.21
2017-11-14T14:22:37.312Z,6.21
2017-11-14T14:24:05.608Z,6.21
2017-11-14T14:25:32.714Z,6.21
2017-11-14T14:26:59.036Z,6.22
2017-11-14T14:28:26.492Z,6.22
2017-11-14T14:29:54.763Z,6.23
2017-11-14T14:31:21.880Z,6.23
2017-11-14T14:32:48.172Z,6.24
2017-11-14T14:34:15.373Z,6.25
2017-11-14T14:35:42.393Z,6.25
2017-11-14T14:37:09.452Z,6.26
2017-11-14T14:38:36.562Z,6.26
2017-11-14T14:40:04.909Z,6.26
2017-11-14T14:41:31.026Z,6.27
2017-11-14T14:42:58.320Z,6.27
2017-11-14T14:44:26.648Z,6.27
2017-11-14T14:45:52.791Z,6.28
2017-11-14T14:47:20.033Z,6.29
2017-11-14T14:48:47.070Z,6.28
2017-11-14T14:50:14.332Z,6.28
2017-11-14T14:51:42.653Z,6.28
2017-11-14T14:53:10.005Z,6.30
2017-11-14T14:54:36.159Z,6.30
2017-11-14T14:56:04.648Z,6.29
2017-11-14T14:57:31.860Z,6.28
2017-11-14T14:58:58.105Z,6.28
2017-11-14T15:00:26.353Z,6.29
2017-11-14T15:01:52.669Z,6.29
2017-11-14T15:03:20.017Z,6.28
2017-11-14T15:04:48.210Z,6.28
2017-11-14T15:06:14.387Z,6.31
2017-11-14T15:07:41.442Z,6.32
2017-11-14T15:09:09.665Z,6.33
2017-11-14T15:10:36.088Z,6.32
2017-11-14T15:12:04.234Z,6.30
2017-11-14T15:13:31.309Z,6.30
2017-11-14T15:14:57.681Z,6.28
2017-11-14T15:16:25.835Z,6.29
2017-11-14T15:17:51.989Z,6.30
2017-11-14T15:19:19.400Z,6.32
2017-11-14T15:20:47.779Z,6.32
2017-11-14T15:22:13.882Z,6.32
2017-11-14T15:23:42.062Z,6.33
2017-11-14T15:25:08.356Z,6.33
2017-11-14T15:26:35.435Z,6.34
2017-11-14T15:28:03.664Z,6.33
2017-11-14T15:29:30.052Z,6.32
2017-11-14T15:30:58.415Z,6.30
2017-11-14T15:32:25.689Z,6.31
2017-11-14T15:33:53.155Z,6.32
2017-11-14T15:35:19.389Z,6.32
2017-11-14T15:36:46.775Z,6.33
2017-11-14T15:38:14.022Z,6.35
2017-11-14T15:39:42.143Z,6.35
2017-11-14T15:41:08.324Z,6.34
2017-11-14T15:42:36.657Z,6.34
2017-11-14T15:44:02.998Z,6.31
2017-11-14T15:45:31.054Z,6.31
2017-11-14T15:46:57.333Z,6.31
2017-11-14T15:48:24.368Z,6.31
2017-11-14T15:49:51.504Z,6.30
2017-11-14T15:51:18.739Z,6.29
2017-11-14T15:52:47.025Z,6.30
2017-11-14T15:54:14.235Z,6.30
2017-11-14T15:55:41.492Z,6.30
2017-11-14T15:57:08.748Z,6.29
2017-11-14T15:58:35.013Z,6.28
2017-11-14T16:00:08.466Z,6.29
2017-11-14T16:01:30.467Z,6.29
2017-11-14T16:02:57.722Z,6.29
2017-11-14T16:04:23.900Z,6.30
2017-11-14T16:05:52.341Z,6.32
2017-11-14T16:07:19.452Z,6.32
2017-11-14T16:08:45.798Z,6.32
2017-11-14T16:10:14.097Z,6.33
2017-11-14T16:11:40.228Z,6.33
2017-11-14T16:13:07.508Z,6.35
2017-11-14T16:14:34.743Z,6.36
2017-11-14T16:16:02.941Z,6.37
2017-11-14T16:17:29.275Z,6.39
2017-11-14T16:18:57.642Z,6.40
2017-11-14T16:20:24.833Z,6.43
2017-11-14T16:21:51.973Z,6.44
2017-11-14T16:23:19.076Z,6.47
2017-11-14T16:24:45.255Z,6.49
2017-11-14T16:26:13.606Z,6.52
2017-11-14T16:27:40.948Z,6.53
2017-11-14T16:29:08.229Z,6.54
2017-11-14T16:30:34.628Z,6.56
2017-11-14T16:32:01.947Z,6.58
2017-11-14T16:33:29.317Z,6.60
2017-11-14T16:34:57.507Z,6.61
2017-11-14T16:36:24.782Z,6.64
2017-11-14T16:37:51.014Z,6.66
2017-11-14T16:39:19.290Z,6.67
2017-11-14T16:40:45.506Z,6.68
2017-11-14T16:42:12.792Z,6.68
2017-11-14T16:43:39.967Z,6.68
2017-11-14T16:45:07.350Z,6.69
2017-11-14T16:46:34.710Z,6.70
2017-11-14T16:48:03.089Z,6.70
2017-11-14T16:49:29.482Z,6.70
2017-11-14T16:50:56.936Z,6.71
2017-11-14T16:52:24.247Z,6.71
2017-11-14T16:53:51.659Z,6.71
2017-11-14T16:55:19.853Z,6.73
2017-11-14T16:56:47.119Z,6.74
2017-11-14T16:58:14.424Z,6.75
2017-11-14T16:59:40.437Z,6.76
2017-11-14T17:01:08.681Z,6.76
2017-11-14T17:02:34.998Z,6.77
2017-11-14T17:04:02.327Z,6.77
2017-11-14T17:05:30.725Z,6.78
2017-11-14T17:06:57.889Z,6.79
2017-11-14T17:08:25.100Z,6.79
2017-11-14T17:09:52.284Z,6.79
2017-11-14T17:11:18.466Z,6.80
2017-11-14T17:12:45.756Z,6.80
2017-11-14T17:14:13.089Z,6.82
2017-11-14T17:15:40.252Z,6.83
2017-11-14T17:17:07.624Z,6.84
2017-11-14T17:18:35.015Z,6.85
2017-11-14T17:20:02.154Z,6.86
2017-11-14T17:21:30.422Z,6.87
2017-11-14T17:22:57.569Z,6.88
2017-11-14T17:24:24.742Z,6.88
2017-11-14T17:25:51.560Z,6.89
2017-11-14T17:27:18.763Z,6.91
2017-11-14T17:28:44.986Z,6.92
2017-11-14T17:30:13.023Z,6.93
2017-11-14T17:31:40.145Z,6.93
2017-11-14T17:33:07.334Z,6.95
2017-11-14T17:34:33.406Z,6.97
2017-11-14T17:36:01.517Z,6.97
2017-11-14T17:37:28.720Z,6.98
2017-11-14T17:38:55.065Z,6.98
2017-11-14T17:40:23.288Z,6.99
2017-11-14T17:41:49.638Z,7.00
2017-11-14T17:43:17.871Z,7.01
2017-11-14T17:44:43.993Z,7.03
2017-11-14T17:46:11.398Z,7.04
2017-11-14T17:47:38.839Z,7.05
2017-11-14T17:49:07.075Z,7.05
2017-11-14T17:50:34.366Z,7.05
2017-11-14T17:52:00.722Z,7.05
2017-11-14T17:53:28.039Z,7.07
2017-11-14T17:54:56.458Z,7.07
2017-11-14T17:56:23.489Z,7.08
2017-11-14T17:57:49.752Z,7.09
2017-11-14T17:59:16.722Z,7.10
2017-11-14T18:00:44.125Z,7.12
2017-11-14T18:02:11.866Z,7.13
2017-11-14T18:03:39.193Z,7.13
2017-11-14T18:05:06.620Z,7.13
2017-11-14T18:06:33.910Z,7.14
2017-11-14T18:08:01.203Z,7.15
2017-11-14T18:09:27.039Z,7.16
2017-11-14T18:10:55.392Z,7.16
2017-11-14T18:12:22.811Z,7.16
2017-11-14T18:13:50.034Z,7.16
2017-11-14T18:15:16.178Z,7.16
2017-11-14T18:16:43.492Z,7.18
2017-11-14T18:18:11.748Z,7.19
2017-11-14T18:19:39.022Z,7.19
2017-11-14T18:21:05.860Z,7.21
2017-11-14T18:22:32.005Z,7.22
2017-11-14T18:23:59.188Z,7.22
2017-11-14T18:25:27.468Z,7.23
2017-11-14T18:26:53.872Z,7.23
2017-11-14T18:28:21.842Z,7.23
2017-11-14T18:29:48.166Z,7.24
2017-11-14T18:31:16.166Z,7.25
2017-11-14T18:32:43.191Z,7.24
2017-11-14T18:34:10.249Z,7.23
2017-11-14T18:35:36.580Z,7.24
2017-11-14T18:37:04.716Z,7.25
2017-11-14T18:38:30.903Z,7.27
2017-11-14T18:39:58.272Z,7.28
2017-11-14T18:41:25.586Z,7.29
2017-11-14T18:42:53.875Z,7.31
2017-11-14T18:44:20.072Z,7.32
2017-11-14T18:45:47.393Z,7.33
2017-11-14T18:47:20.492Z,7.33
2017-11-14T18:48:41.796Z,7.35
2017-11-14T18:50:09.980Z,7.37
2017-11-14T18:51:37.545Z,7.38
2017-11-14T18:53:03.894Z,7.38
2017-11-14T18:54:32.197Z,7.39
2017-11-14T18:55:59.181Z,7.39
2017-11-14T18:57:25.549Z,7.39
2017-11-14T18:58:53.905Z,7.40
2017-11-14T19:00:21.074Z,7.40
2017-11-14T19:01:47.023Z,7.40
2017-11-14T19:03:15.019Z,7.40
2017-11-14T19:04:42.358Z,7.40
2017-11-14T19:06:08.639Z,7.39
2017-11-14T19:07:35.919Z,7.40
2017-11-14T19:09:03.247Z,7.43
2017-11-14T19:10:31.574Z,7.45
2017-11-14T19:11:58.965Z,7.47
2017-11-14T19:13:25.429Z,7.47
2017-11-14T19:14:53.634Z,7.48
2017-11-14T19:16:20.853Z,7.49
2017-11-14T19:17:48.226Z,7.50
2017-11-14T19:19:14.358Z,7.50
2017-11-14T19:20:41.623Z,7.50
2017-11-14T19:22:09.905Z,7.50
2017-11-14T19:23:37.022Z,7.51
2017-11-14T19:25:04.296Z,7.52